Time,TemperatureF,DewpointF,PressureIn,WindDirection,WindDirectionDegrees,WindSpeedMPH,WindSpeedGustMPH,Humidity,HourlyPrecipIn,Conditions,Clouds,dailyrainin,SoftwareType,DateUTC
2013-07-07 00:00:00,75.8,71.3,30.04,ESE,104,0.0,0.0,86,0.00,,,0.01,WUHU216DAVISVP2,2013-07-07 04:00:00,
2013-07-07 00:01:00,75.8,71.3,30.04,ESE,105,0.0,0.0,86,0.00,,,0.01,WUHU216DAVISVP2,2013-07-07 04:01:00,
2013-07-07 00:06:00,75.8,71.3,30.04,ESE,105,0.0,0.0,86,0.00,,,0.00,WUHU216DAVISVP2,2013-07-07 04:06:00,
2013-07-07 00:11:00,75.8,71.3,30.04,ESE,104,0.0,0.0,86,0.00,,,0.00,WUHU216DAVISVP2,2013-07-07 04:11:00,
2013-07-07 00:16:00,75.9,71.4,30.04,ESE,105,0.0,0.0,86,0.00,,,0.00,WUHU216DAVISVP2,2013-07-07 04:16:00,
2013-07-07 00:21:00,75.9,71.8,30.04,ESE,105,0.0,0.0,87,0.00,,,0.00,WUHU216DAVISVP2,2013-07-07 04:21:00,
2013-07-07 00:26:00,75.8,71.7,30.04,ESE,105,0.0,0.0,87,0.00,,,0.00,WUHU216DAVISVP2,2013-07-07 04:26:00,
2013-07-07 00:31:00,75.8,71.7,30.04,ESE,105,0.0,0.0,87,0.00,,,0.00,WUHU216DAVISVP2,2013-07-07 04:31:00,
2013-07-07 00:36:00,75.8,71.7,30.04,ESE,105,0.0,0.0,87,0.00,,,0.00,WUHU216DAVISVP2,2013-07-07 04:36:00,
2013-07-07 00:41:00,75.8,71.7,30.04,ESE,105,0.0,0.0,87,0.00,,,0.00,WUHU216DAVISVP2,2013-07-07 04:41:00,
2013-07-07 00:46:00,75.8,71.7,30.04,ESE,105,0.0,0.0,87,0.00,,,0.00,WUHU216DAVISVP2,2013-07-07 04:46:00,
2013-07-07 00:51:00,75.8,72.0,30.04,ESE,104,0.0,0.0,88,0.00,,,0.00,WUHU216DAVISVP2,2013-07-07 04:51:00,
2013-07-07 00:56:00,75.9,72.1,30.04,ESE,104,0.0,0.0,88,0.00,,,0.00,WUHU216DAVISVP2,2013-07-07 04:56:00,
2013-07-07 01:01:00,75.9,72.1,30.04,ESE,105,0.0,0.0,88,0.00,,,0.00,WUHU216DAVISVP2,2013-07-07 05:01:00,
2013-07-07 01:06:00,75.8,72.0,30.04,ESE,105,0.0,0.0,88,0.00,,,0.00,WUHU216DAVISVP2,2013-07-07 05:06:00,
2013-07-07 01:11:00,75.7,72.2,30.03,ESE,104,0.0,0.0,89,0.00,,,0.00,WUHU216DAVISVP2,2013-07-07 05:11:00,
2013-07-07 01:16:00,75.6,72.1,30.03,ESE,105,0.0,0.0,89,0.00,,,0.00,WUHU216DAVISVP2,2013-07-07 05:16:00,
2013-07-07 01:21:00,75.5,72.0,30.03,ESE,105,0.0,0.0,89,0.00,,,0.00,WUHU216DAVISVP2,2013-07-07 05:21:00,
2013-07-07 01:26:00,75.4,71.9,30.03,ESE,105,0.0,0.0,89,0.00,,,0.00,WUHU216DAVISVP2,2013-07-07 05:26:00,
2013-07-07 01:31:00,75.4,71.9,30.03,ESE,105,0.0,0.0,89,0.00,,,0.00,WUHU216DAVISVP2,2013-07-07 05:31:00,
2013-07-07 01:36:00,75.4,71.9,30.03,ESE,104,0.0,0.0,89,0.00,,,0.00,WUHU216DAVISVP2,2013-07-07 05:36:00,
2013-07-07 01:41:00,75.3,71.8,30.03,ESE,105,0.0,0.0,89,0.00,,,0.00,WUHU216DAVISVP2,2013-07-07 05:41:00,
2013-07-07 01:46:00,75.2,71.7,30.02,ESE,105,0.0,0.0,89,0.00,,,0.00,WUHU216DAVISVP2,2013-07-07 05:46:00,
2013-07-07 01:51:00,75.2,72.1,30.02,ESE,105,0.0,0.0,90,0.00,,,0.00,WUHU216DAVISVP2,2013-07-07 05:51:00,
2013-07-07 01:56:00,75.2,72.1,30.02,ESE,105,0.0,0.0,90,0.00,,,0.00,WUHU216DAVISVP2,2013-07-07 05:56:00,
2013-07-07 02:01:00,75.2,72.1,30.02,ESE,105,0.0,0.0,90,0.00,,,0.00,WUHU216DAVISVP2,2013-07-07 06:01:00,
2013-07-07 02:06:00,75.1,72.3,30.01,ESE,105,0.0,1.0,91,0.00,,,0.00,WUHU216DAVISVP2,2013-07-07 06:06:00,
2013-07-07 02:11:00,75.1,72.3,30.02,ESE,105,0.0,1.0,91,0.00,,,0.00,WUHU216DAVISVP2,2013-07-07 06:11:00,
2013-07-07 02:16:00,75.1,72.3,30.01,ESE,106,0.0,1.0,91,0.00,,,0.00,WUHU216DAVISVP2,2013-07-07 06:16:00,
2013-07-07 02:21:00,75.1,72.6,30.01,ESE,106,0.0,1.0,92,0.00,,,0.00,WUHU216DAVISVP2,2013-07-07 06:21:00,
2013-07-07 02:26:00,75.1,72.6,30.01,ESE,110,0.0,1.0,92,0.00,,,0.00,WUHU216DAVISVP2,2013-07-07 06:26:00,
2013-07-07 02:31:00,75.1,72.6,30.01,SSE,148,1.0,2.0,92,0.00,,,0.00,WUHU216DAVISVP2,2013-07-07 06:31:00,
2013-07-07 02:36:00,75.2,72.4,30.01,SE,141,0.0,2.0,91,0.00,,,0.00,WUHU216DAVISVP2,2013-07-07 06:36:00,
2013-07-07 02:41:00,75.3,72.5,30.00,SE,141,0.0,2.0,91,0.00,,,0.00,WUHU216DAVISVP2,2013-07-07 06:41:00,
2013-07-07 02:46:00,75.3,72.5,30.00,SE,136,0.0,2.0,91,0.00,,,0.00,WUHU216DAVISVP2,2013-07-07 06:46:00,
2013-07-07 02:51:00,75.2,72.4,30.00,SE,136,0.0,2.0,91,0.00,,,0.00,WUHU216DAVISVP2,2013-07-07 06:51:00,
2013-07-07 02:56:00,75.2,72.4,30.00,SE,136,0.0,1.0,91,0.00,,,0.00,WUHU216DAVISVP2,2013-07-07 06:56:00,
2013-07-07 03:01:00,75.2,72.4,30.00,South,183,0.0,1.0,91,0.00,,,0.00,WUHU216DAVISVP2,2013-07-07 07:01:00,
2013-07-07 03:06:00,75.2,72.1,30.00,SSE,153,0.0,1.0,90,0.00,,,0.00,WUHU216DAVISVP2,2013-07-07 07:06:00,
2013-07-07 03:11:00,75.3,72.5,30.00,WSW,237,0.0,1.0,91,0.00,,,0.00,WUHU216DAVISVP2,2013-07-07 07:11:00,
2013-07-07 03:16:00,75.4,72.3,30.01,South,190,0.0,3.0,90,0.00,,,0.00,WUHU216DAVISVP2,2013-07-07 07:16:00,
2013-07-07 03:21:00,75.6,72.5,30.00,SE,145,0.0,3.0,90,0.00,,,0.00,WUHU216DAVISVP2,2013-07-07 07:21:00,
2013-07-07 03:26:00,75.6,72.4,30.01,SW,236,0.0,3.0,90,0.00,,,0.00,WUHU216DAVISVP2,2013-07-07 07:26:00,
2013-07-07 03:31:00,75.6,72.1,30.01,WSW,242,2.0,4.0,89,0.00,,,0.00,WUHU216DAVISVP2,2013-07-07 07:31:00,
2013-07-07 03:36:00,75.6,72.4,30.01,SSW,212,2.0,5.0,90,0.00,,,0.00,WUHU216DAVISVP2,2013-07-07 07:36:00,
2013-07-07 03:41:00,75.5,72.7,30.02,WSW,255,2.0,5.0,91,0.00,,,0.00,WUHU216DAVISVP2,2013-07-07 07:41:00,
2013-07-07 03:46:00,75.4,72.9,30.01,WSW,252,2.0,6.0,92,0.00,,,0.00,WUHU216DAVISVP2,2013-07-07 07:46:00,
2013-07-07 03:51:00,75.3,72.8,30.01,WSW,238,1.0,8.0,92,0.00,,,0.00,WUHU216DAVISVP2,2013-07-07 07:51:00,
2013-07-07 03:56:00,75.2,73.0,30.00,SW,218,0.0,8.0,93,0.00,,,0.00,WUHU216DAVISVP2,2013-07-07 07:56:00,
2013-07-07 04:01:00,75.1,72.9,30.00,SW,235,1.0,7.0,93,0.01,,,0.01,WUHU216DAVISVP2,2013-07-07 08:01:00,
2013-07-07 04:06:00,75.0,73.1,30.00,SSW,203,1.0,7.0,94,0.01,,,0.01,WUHU216DAVISVP2,2013-07-07 08:06:00,
2013-07-07 04:11:00,74.9,73.0,30.00,SSW,194,1.0,4.0,94,0.01,,,0.01,WUHU216DAVISVP2,2013-07-07 08:11:00,
2013-07-07 04:16:00,74.9,73.3,30.02,SW,231,5.0,6.0,95,0.01,,,0.01,WUHU216DAVISVP2,2013-07-07 08:16:00,
2013-07-07 04:21:00,74.8,73.2,30.02,WSW,238,3.0,6.0,95,0.03,,,0.03,WUHU216DAVISVP2,2013-07-07 08:21:00,
2013-07-07 04:26:00,74.6,73.0,30.03,West,280,2.0,10.0,95,0.11,,,0.11,WUHU216DAVISVP2,2013-07-07 08:26:00,
2013-07-07 04:31:00,74.4,72.5,30.03,WSW,239,4.0,10.0,94,0.15,,,0.15,WUHU216DAVISVP2,2013-07-07 08:31:00,
2013-07-07 04:36:00,74.2,72.3,30.03,West,267,3.0,9.0,94,0.17,,,0.17,WUHU216DAVISVP2,2013-07-07 08:36:00,
2013-07-07 04:41:00,74.1,72.5,30.03,NNE,30,3.0,9.0,95,0.19,,,0.19,WUHU216DAVISVP2,2013-07-07 08:41:00,
2013-07-07 04:46:00,73.9,72.3,30.03,North,6,1.0,8.0,95,0.20,,,0.20,WUHU216DAVISVP2,2013-07-07 08:46:00,
2013-07-07 04:51:00,73.8,72.2,30.03,NNW,332,3.0,8.0,95,0.22,,,0.22,WUHU216DAVISVP2,2013-07-07 08:51:00,
2013-07-07 04:56:00,73.5,71.9,30.03,NE,45,2.0,5.0,95,0.23,,,0.23,WUHU216DAVISVP2,2013-07-07 08:56:00,
2013-07-07 05:01:00,73.1,71.6,30.02,NNE,21,4.0,6.0,95,0.23,,,0.24,WUHU216DAVISVP2,2013-07-07 09:01:00,
2013-07-07 05:06:00,72.9,71.4,30.02,NNE,23,4.0,6.0,95,0.24,,,0.25,WUHU216DAVISVP2,2013-07-07 09:06:00,
2013-07-07 05:11:00,72.5,70.6,30.02,NE,48,2.0,6.0,94,0.25,,,0.26,WUHU216DAVISVP2,2013-07-07 09:11:00,
2013-07-07 05:16:00,72.2,70.7,30.01,NE,39,2.0,6.0,95,0.25,,,0.26,WUHU216DAVISVP2,2013-07-07 09:16:00,
2013-07-07 05:21:00,71.9,70.4,30.01,NE,49,4.0,6.0,95,0.23,,,0.26,WUHU216DAVISVP2,2013-07-07 09:21:00,
2013-07-07 05:26:00,71.8,70.3,30.02,NE,40,0.0,6.0,95,0.15,,,0.26,WUHU216DAVISVP2,2013-07-07 09:26:00,
2013-07-07 05:31:00,71.8,70.3,30.01,NE,40,0.0,6.0,95,0.11,,,0.26,WUHU216DAVISVP2,2013-07-07 09:31:00,
2013-07-07 05:36:00,71.5,70.0,30.01,NE,46,2.0,5.0,95,0.09,,,0.26,WUHU216DAVISVP2,2013-07-07 09:36:00,
2013-07-07 05:41:00,71.4,69.9,30.01,NE,46,0.0,5.0,95,0.07,,,0.26,WUHU216DAVISVP2,2013-07-07 09:41:00,
2013-07-07 05:46:00,71.3,70.1,30.01,ESE,120,1.0,4.0,96,0.06,,,0.26,WUHU216DAVISVP2,2013-07-07 09:46:00,
2013-07-07 05:51:00,71.3,70.1,30.01,ESE,122,0.0,4.0,96,0.04,,,0.26,WUHU216DAVISVP2,2013-07-07 09:51:00,
2013-07-07 05:56:00,71.1,69.9,30.01,East,90,1.0,2.0,96,0.03,,,0.26,WUHU216DAVISVP2,2013-07-07 09:56:00,
2013-07-07 06:01:00,71.1,69.9,30.01,ESE,109,0.0,2.0,96,0.02,,,0.26,WUHU216DAVISVP2,2013-07-07 10:01:00,
2013-07-07 06:06:00,71.0,69.8,30.01,ESE,109,0.0,1.0,96,0.01,,,0.26,WUHU216DAVISVP2,2013-07-07 10:06:00,
2013-07-07 06:11:00,71.0,70.1,30.01,ESE,108,0.0,1.0,97,0.00,,,0.26,WUHU216DAVISVP2,2013-07-07 10:11:00,
2013-07-07 06:16:00,71.0,70.1,30.02,ESE,110,0.0,1.0,97,0.00,,,0.26,WUHU216DAVISVP2,2013-07-07 10:16:00,
2013-07-07 06:21:00,71.0,70.1,30.02,ESE,108,0.0,1.0,97,0.00,,,0.26,WUHU216DAVISVP2,2013-07-07 10:21:00,
2013-07-07 06:26:00,71.0,70.1,30.02,ESE,109,0.0,1.0,97,0.00,,,0.26,WUHU216DAVISVP2,2013-07-07 10:26:00,
2013-07-07 06:31:00,71.1,70.2,30.02,ESE,109,0.0,1.0,97,0.00,,,0.26,WUHU216DAVISVP2,2013-07-07 10:31:00,
2013-07-07 06:36:00,71.3,70.4,30.02,ESE,110,0.0,0.0,97,0.00,,,0.26,WUHU216DAVISVP2,2013-07-07 10:36:00,
2013-07-07 06:41:00,71.5,70.6,30.01,ESE,110,0.0,1.0,97,0.00,,,0.26,WUHU216DAVISVP2,2013-07-07 10:41:00,
2013-07-07 06:46:00,71.5,70.6,30.01,ESE,122,0.0,1.0,97,0.00,,,0.26,WUHU216DAVISVP2,2013-07-07 10:46:00,
2013-07-07 06:51:00,71.6,70.7,30.01,ESE,120,0.0,1.0,97,0.00,,,0.26,WUHU216DAVISVP2,2013-07-07 10:51:00,
2013-07-07 06:56:00,71.9,71.0,30.01,ENE,74,0.0,2.0,97,0.00,,,0.26,WUHU216DAVISVP2,2013-07-07 10:56:00,
2013-07-07 07:01:00,72.4,71.5,30.02,SE,146,0.0,2.0,97,0.00,,,0.26,WUHU216DAVISVP2,2013-07-07 11:01:00,
2013-07-07 07:06:00,72.7,71.5,30.01,SSE,162,0.0,1.0,96,0.00,,,0.26,WUHU216DAVISVP2,2013-07-07 11:06:00,
2013-07-07 07:11:00,73.1,71.6,30.02,SSE,148,0.0,1.0,95,0.00,,,0.26,WUHU216DAVISVP2,2013-07-07 11:11:00,
2013-07-07 07:16:00,73.7,72.5,30.02,SSE,148,0.0,1.0,96,0.00,,,0.26,WUHU216DAVISVP2,2013-07-07 11:16:00,
2013-07-07 07:21:00,74.1,72.2,30.02,ESE,112,0.0,1.0,94,0.00,,,0.26,WUHU216DAVISVP2,2013-07-07 11:21:00,
2013-07-07 07:26:00,73.9,71.7,30.02,SE,143,0.0,2.0,93,0.00,,,0.26,WUHU216DAVISVP2,2013-07-07 11:26:00,
2013-07-07 07:31:00,73.9,71.7,30.02,WSW,239,0.0,2.0,93,0.00,,,0.26,WUHU216DAVISVP2,2013-07-07 11:31:00,
2013-07-07 07:36:00,74.4,72.5,30.02,ESE,122,2.0,2.0,94,0.00,,,0.26,WUHU216DAVISVP2,2013-07-07 11:36:00,
2013-07-07 07:41:00,74.9,72.4,30.02,SE,140,0.0,2.0,92,0.00,,,0.26,WUHU216DAVISVP2,2013-07-07 11:41:00,
2013-07-07 07:46:00,75.2,72.4,30.02,SE,131,0.0,2.0,91,0.00,,,0.26,WUHU216DAVISVP2,2013-07-07 11:46:00,
2013-07-07 07:51:00,75.6,72.8,30.02,SE,133,1.0,2.0,91,0.00,,,0.26,WUHU216DAVISVP2,2013-07-07 11:51:00,
2013-07-07 07:56:00,75.9,72.8,30.02,SSE,158,0.0,2.0,90,0.00,,,0.26,WUHU216DAVISVP2,2013-07-07 11:56:00,
2013-07-07 08:01:00,75.9,72.4,30.02,WSW,237,0.0,4.0,89,0.00,,,0.26,WUHU216DAVISVP2,2013-07-07 12:01:00,
2013-07-07 08:06:00,76.0,72.5,30.02,WSW,245,0.0,4.0,89,0.00,,,0.26,WUHU216DAVISVP2,2013-07-07 12:06:00,
2013-07-07 08:07:00,76.1,72.6,30.02,SW,233,0.0,4.0,89,0.00,,,0.26,WUHU216DAVISVP2,2013-07-07 12:07:00,
2013-07-07 08:12:00,76.5,73.0,30.03,SSW,207,0.0,4.0,89,0.00,,,0.26,WUHU216DAVISVP2,2013-07-07 12:12:00,
2013-07-07 08:17:00,77.2,73.4,30.03,SE,145,1.0,4.0,88,0.00,,,0.26,WUHU216DAVISVP2,2013-07-07 12:17:00,
2013-07-07 08:21:00,77.7,73.2,30.03,SE,143,0.0,3.0,86,0.00,,,0.26,WUHU216DAVISVP2,2013-07-07 12:21:00,
2013-07-07 08:26:00,78.0,73.8,30.03,South,187,0.0,3.0,87,0.00,,,0.26,WUHU216DAVISVP2,2013-07-07 12:26:00,
2013-07-07 08:31:00,78.6,73.0,30.03,SE,141,2.0,3.0,83,0.00,,,0.26,WUHU216DAVISVP2,2013-07-07 12:31:00,
2013-07-07 08:36:00,78.9,73.7,30.02,SE,131,2.0,3.0,84,0.00,,,0.26,WUHU216DAVISVP2,2013-07-07 12:36:00,
2013-07-07 08:41:00,78.8,73.2,30.02,SSE,152,2.0,3.0,83,0.00,,,0.26,WUHU216DAVISVP2,2013-07-07 12:41:00,
2013-07-07 08:46:00,79.0,73.7,30.02,SE,135,1.0,4.0,84,0.00,,,0.26,WUHU216DAVISVP2,2013-07-07 12:46:00,
2013-07-07 08:51:00,79.3,74.0,30.02,WSW,238,1.0,4.0,84,0.00,,,0.26,WUHU216DAVISVP2,2013-07-07 12:51:00,
2013-07-07 08:56:00,79.7,73.7,30.02,WSW,237,3.0,4.0,82,0.00,,,0.26,WUHU216DAVISVP2,2013-07-07 12:56:00,
2013-07-07 09:01:00,79.5,73.5,30.02,WSW,245,0.0,5.0,82,0.00,,,0.26,WUHU216DAVISVP2,2013-07-07 13:01:00,
2013-07-07 09:06:00,79.4,73.4,30.02,SW,232,3.0,6.0,82,0.00,,,0.26,WUHU216DAVISVP2,2013-07-07 13:06:00,
2013-07-07 09:11:00,79.6,74.1,30.02,SSW,212,0.0,6.0,83,0.00,,,0.26,WUHU216DAVISVP2,2013-07-07 13:11:00,
2013-07-07 09:16:00,79.4,73.5,30.02,WSW,238,0.0,8.0,82,0.00,,,0.26,WUHU216DAVISVP2,2013-07-07 13:16:00,
2013-07-07 09:21:00,79.6,74.1,30.02,SE,141,0.0,8.0,83,0.00,,,0.26,WUHU216DAVISVP2,2013-07-07 13:21:00,
2013-07-07 09:26:00,79.5,74.0,30.02,SSE,150,2.0,8.0,83,0.00,,,0.26,WUHU216DAVISVP2,2013-07-07 13:26:00,
2013-07-07 09:31:00,79.4,74.2,30.02,WSW,252,3.0,7.0,84,0.00,,,0.26,WUHU216DAVISVP2,2013-07-07 13:31:00,
2013-07-07 09:36:00,79.4,74.2,30.01,SW,236,2.0,7.0,84,0.00,,,0.26,WUHU216DAVISVP2,2013-07-07 13:36:00,
2013-07-07 09:41:00,79.7,74.5,30.01,WSW,246,0.0,6.0,84,0.00,,,0.26,WUHU216DAVISVP2,2013-07-07 13:41:00,
2013-07-07 09:46:00,80.5,74.9,30.01,WSW,238,0.0,6.0,83,0.00,,,0.26,WUHU216DAVISVP2,2013-07-07 13:46:00,
2013-07-07 09:51:00,81.0,75.1,30.01,West,281,3.0,5.0,82,0.00,,,0.26,WUHU216DAVISVP2,2013-07-07 13:51:00,
2013-07-07 09:56:00,81.2,74.2,30.01,South,188,4.0,6.0,79,0.00,,,0.26,WUHU216DAVISVP2,2013-07-07 13:56:00,
2013-07-07 10:01:00,81.1,74.1,30.01,WSW,245,4.0,10.0,79,0.00,,,0.26,WUHU216DAVISVP2,2013-07-07 14:01:00,
2013-07-07 10:06:00,80.9,73.9,30.01,WSW,246,2.0,10.0,79,0.00,,,0.26,WUHU216DAVISVP2,2013-07-07 14:06:00,
2013-07-07 10:11:00,80.8,74.5,30.01,SW,231,3.0,9.0,81,0.00,,,0.26,WUHU216DAVISVP2,2013-07-07 14:11:00,
2013-07-07 10:16:00,81.2,74.2,30.01,WNW,295,0.0,9.0,79,0.00,,,0.26,WUHU216DAVISVP2,2013-07-07 14:16:00,
2013-07-07 10:21:00,81.1,74.1,30.01,SW,221,3.0,8.0,79,0.00,,,0.26,WUHU216DAVISVP2,2013-07-07 14:21:00,
2013-07-07 10:26:00,81.2,74.6,30.00,SW,225,0.0,8.0,80,0.00,,,0.26,WUHU216DAVISVP2,2013-07-07 14:26:00,
2013-07-07 10:31:00,81.9,74.9,30.01,SW,231,4.0,8.0,79,0.00,,,0.26,WUHU216DAVISVP2,2013-07-07 14:31:00,
2013-07-07 10:37:00,82.1,74.0,30.00,SSE,167,4.0,8.0,76,0.00,,,0.26,WUHU216DAVISVP2,2013-07-07 14:37:00,
2013-07-07 10:41:00,83.1,74.9,30.00,WSW,248,1.0,6.0,76,0.00,,,0.26,WUHU216DAVISVP2,2013-07-07 14:41:00,
2013-07-07 10:47:00,82.9,74.0,30.00,WSW,240,6.0,9.0,74,0.00,,,0.26,WUHU216DAVISVP2,2013-07-07 14:47:00,
2013-07-07 10:52:00,82.4,74.2,30.00,WNW,283,4.0,9.0,76,0.00,,,0.26,WUHU216DAVISVP2,2013-07-07 14:52:00,
2013-07-07 10:56:00,82.3,74.2,30.00,South,172,2.0,9.0,76,0.00,,,0.26,WUHU216DAVISVP2,2013-07-07 14:56:00,
2013-07-07 11:01:00,82.9,74.7,30.00,NNW,327,3.0,8.0,76,0.00,,,0.26,WUHU216DAVISVP2,2013-07-07 15:01:00,
2013-07-07 11:06:00,82.7,73.8,30.00,WSW,243,4.0,9.0,74,0.00,,,0.26,WUHU216DAVISVP2,2013-07-07 15:06:00,
2013-07-07 11:11:00,82.6,73.7,30.00,SW,215,5.0,9.0,74,0.00,,,0.26,WUHU216DAVISVP2,2013-07-07 15:11:00,
2013-07-07 11:17:00,82.3,73.0,30.00,SSE,167,2.0,9.0,73,0.00,,,0.26,WUHU216DAVISVP2,2013-07-07 15:17:00,
2013-07-07 11:22:00,82.4,73.1,30.00,WSW,255,3.0,10.0,73,0.00,,,0.26,WUHU216DAVISVP2,2013-07-07 15:22:00,
2013-07-07 11:27:00,82.5,73.6,30.00,WNW,282,4.0,12.0,74,0.00,,,0.26,WUHU216DAVISVP2,2013-07-07 15:27:00,
2013-07-07 11:32:00,82.6,72.9,30.00,SW,231,5.0,12.0,72,0.00,,,0.26,WUHU216DAVISVP2,2013-07-07 15:32:00,
2013-07-07 11:37:00,83.3,72.9,30.00,West,266,5.0,12.0,71,0.00,,,0.26,WUHU216DAVISVP2,2013-07-07 15:37:00,
2013-07-07 11:42:00,83.8,73.4,30.00,SSE,159,0.0,12.0,71,0.00,,,0.26,WUHU216DAVISVP2,2013-07-07 15:42:00,
2013-07-07 11:47:00,84.3,73.4,30.00,WSW,256,4.0,11.0,70,0.00,,,0.26,WUHU216DAVISVP2,2013-07-07 15:47:00,
2013-07-07 11:52:00,84.0,70.0,30.00,West,262,4.0,10.0,63,0.00,,,0.26,WUHU216DAVISVP2,2013-07-07 15:52:00,
2013-07-07 11:57:00,84.1,71.1,30.00,West,262,1.0,10.0,65,0.00,,,0.26,WUHU216DAVISVP2,2013-07-07 15:57:00,
2013-07-07 12:02:00,84.6,71.5,30.00,WNW,288,3.0,10.0,65,0.00,,,0.26,WUHU216DAVISVP2,2013-07-07 16:02:00,
2013-07-07 12:07:00,84.9,72.1,30.00,SSE,160,1.0,10.0,65,0.00,,,0.26,WUHU216DAVISVP2,2013-07-07 16:07:00,
2013-07-07 12:12:00,85.1,71.8,30.00,North,360,0.0,8.0,64,0.00,,,0.26,WUHU216DAVISVP2,2013-07-07 16:12:00,
2013-07-07 12:17:00,86.2,71.4,30.00,WSW,238,1.0,7.0,61,0.00,,,0.26,WUHU216DAVISVP2,2013-07-07 16:17:00,
2013-07-07 12:22:00,86.5,71.2,29.99,SW,233,6.0,8.0,60,0.00,,,0.26,WUHU216DAVISVP2,2013-07-07 16:22:00,
2013-07-07 12:27:00,86.2,70.5,29.99,SW,223,3.0,9.0,59,0.00,,,0.26,WUHU216DAVISVP2,2013-07-07 16:27:00,
2013-07-07 12:32:00,86.1,71.8,29.99,NNW,333,3.0,9.0,62,0.00,,,0.26,WUHU216DAVISVP2,2013-07-07 16:32:00,
2013-07-07 12:37:00,85.8,71.1,29.99,WNW,287,3.0,9.0,61,0.00,,,0.26,WUHU216DAVISVP2,2013-07-07 16:37:00,
2013-07-07 12:42:00,85.8,72.0,29.99,WNW,293,5.0,9.0,63,0.00,,,0.26,WUHU216DAVISVP2,2013-07-07 16:42:00,
2013-07-07 12:47:00,86.0,71.3,29.99,SSW,210,5.0,9.0,61,0.00,,,0.26,WUHU216DAVISVP2,2013-07-07 16:47:00,
2013-07-07 12:52:00,85.8,71.1,29.99,West,259,4.0,9.0,61,0.00,,,0.26,WUHU216DAVISVP2,2013-07-07 16:52:00,
2013-07-07 12:57:00,85.4,71.2,29.99,West,259,3.0,9.0,62,0.00,,,0.26,WUHU216DAVISVP2,2013-07-07 16:57:00,
2013-07-07 13:02:00,85.7,71.5,29.99,NE,46,1.0,9.0,62,0.00,,,0.26,WUHU216DAVISVP2,2013-07-07 17:02:00,
2013-07-07 13:07:00,85.9,71.6,29.99,WSW,253,8.0,8.0,62,0.00,,,0.26,WUHU216DAVISVP2,2013-07-07 17:07:00,
2013-07-07 13:12:00,86.0,70.8,29.99,NW,318,2.0,8.0,60,0.00,,,0.26,WUHU216DAVISVP2,2013-07-07 17:12:00,
2013-07-07 13:17:00,86.4,70.6,29.99,WNW,288,4.0,8.0,59,0.00,,,0.26,WUHU216DAVISVP2,2013-07-07 17:17:00,
2013-07-07 13:21:00,85.8,69.6,29.98,WNW,300,2.0,11.0,58,0.00,,,0.26,WUHU216DAVISVP2,2013-07-07 17:21:00,
2013-07-07 13:26:00,85.8,70.1,29.98,WNW,291,6.0,11.0,59,0.00,,,0.26,WUHU216DAVISVP2,2013-07-07 17:26:00,
2013-07-07 13:31:00,85.8,70.3,29.98,North,349,1.0,10.0,60,0.00,,,0.26,WUHU216DAVISVP2,2013-07-07 17:31:00,
2013-07-07 13:36:00,85.9,70.4,29.98,NNW,338,0.0,10.0,60,0.00,,,0.26,WUHU216DAVISVP2,2013-07-07 17:36:00,
2013-07-07 13:41:00,86.0,70.0,29.98,WSW,245,4.0,10.0,59,0.00,,,0.26,WUHU216DAVISVP2,2013-07-07 17:41:00,
2013-07-07 13:46:00,86.1,70.4,29.98,SSW,201,2.0,12.0,59,0.00,,,0.26,WUHU216DAVISVP2,2013-07-07 17:46:00,
2013-07-07 13:52:00,85.7,70.0,29.98,NW,323,4.0,12.0,59,0.00,,,0.26,WUHU216DAVISVP2,2013-07-07 17:52:00,
2013-07-07 13:56:00,85.4,69.4,29.97,West,260,0.0,12.0,59,0.00,,,0.26,WUHU216DAVISVP2,2013-07-07 17:56:00,
2013-07-07 14:01:00,86.3,71.1,29.97,WSW,239,6.0,12.0,60,0.00,,,0.26,WUHU216DAVISVP2,2013-07-07 18:01:00,
2013-07-07 14:06:00,85.9,69.7,29.97,West,278,6.0,8.0,58,0.00,,,0.26,WUHU216DAVISVP2,2013-07-07 18:06:00,
2013-07-07 14:11:00,85.0,69.8,29.97,WNW,297,1.0,8.0,60,0.00,,,0.26,WUHU216DAVISVP2,2013-07-07 18:11:00,
2013-07-07 14:16:00,85.1,70.4,29.97,NE,56,0.0,8.0,61,0.00,,,0.26,WUHU216DAVISVP2,2013-07-07 18:16:00,
2013-07-07 14:21:00,85.7,70.0,29.96,NW,307,4.0,9.0,59,0.00,,,0.26,WUHU216DAVISVP2,2013-07-07 18:21:00,
2013-07-07 14:26:00,86.5,70.7,29.96,WSW,246,2.0,9.0,59,0.00,,,0.26,WUHU216DAVISVP2,2013-07-07 18:26:00,
2013-07-07 14:31:00,87.3,69.4,29.96,WNW,288,2.0,9.0,55,0.00,,,0.26,WUHU216DAVISVP2,2013-07-07 18:31:00,
2013-07-07 14:36:00,86.8,71.5,29.96,WSW,242,3.0,9.0,60,0.00,,,0.26,WUHU216DAVISVP2,2013-07-07 18:36:00,
2013-07-07 14:41:00,86.2,69.9,29.96,SSW,213,2.0,8.0,58,0.00,,,0.26,WUHU216DAVISVP2,2013-07-07 18:41:00,
2013-07-07 14:46:00,85.6,70.4,29.96,West,273,2.0,6.0,60,0.00,,,0.26,WUHU216DAVISVP2,2013-07-07 18:46:00,
2013-07-07 14:51:00,85.4,71.2,29.96,NW,316,2.0,6.0,62,0.00,,,0.26,WUHU216DAVISVP2,2013-07-07 18:51:00,
2013-07-07 14:56:00,85.4,71.2,29.96,West,264,2.0,5.0,62,0.00,,,0.26,WUHU216DAVISVP2,2013-07-07 18:56:00,
2013-07-07 15:01:00,85.5,71.3,29.96,NW,311,2.0,5.0,62,0.00,,,0.26,WUHU216DAVISVP2,2013-07-07 19:01:00,
2013-07-07 15:06:00,85.2,71.5,29.96,North,4,3.0,5.0,63,0.00,,,0.26,WUHU216DAVISVP2,2013-07-07 19:06:00,
2013-07-07 15:11:00,85.0,71.3,29.95,WNW,283,2.0,5.0,63,0.00,,,0.26,WUHU216DAVISVP2,2013-07-07 19:11:00,
2013-07-07 15:16:00,85.5,72.2,29.95,NW,316,1.0,5.0,64,0.00,,,0.26,WUHU216DAVISVP2,2013-07-07 19:16:00,
2013-07-07 15:21:00,85.5,71.3,29.95,West,264,4.0,7.0,62,0.00,,,0.26,WUHU216DAVISVP2,2013-07-07 19:21:00,
2013-07-07 15:26:00,85.7,71.5,29.95,North,349,0.0,7.0,62,0.00,,,0.26,WUHU216DAVISVP2,2013-07-07 19:26:00,
2013-07-07 15:31:00,85.6,70.4,29.95,WNW,300,3.0,7.0,60,0.00,,,0.26,WUHU216DAVISVP2,2013-07-07 19:31:00,
2013-07-07 15:36:00,85.4,71.2,29.94,SW,228,1.0,7.0,62,0.00,,,0.26,WUHU216DAVISVP2,2013-07-07 19:36:00,
2013-07-07 15:41:00,86.2,70.7,29.94,NNW,344,6.0,7.0,60,0.00,,,0.26,WUHU216DAVISVP2,2013-07-07 19:41:00,
2013-07-07 15:46:00,86.5,71.5,29.94,NNW,335,1.0,8.0,61,0.00,,,0.26,WUHU216DAVISVP2,2013-07-07 19:46:00,
2013-07-07 15:51:00,87.1,71.5,29.94,WSW,248,3.0,8.0,60,0.00,,,0.26,WUHU216DAVISVP2,2013-07-07 19:51:00,
2013-07-07 15:56:00,87.3,71.0,29.94,WNW,300,4.0,8.0,58,0.00,,,0.26,WUHU216DAVISVP2,2013-07-07 19:56:00,
2013-07-07 16:01:00,86.8,71.5,29.93,West,277,3.0,9.0,60,0.00,,,0.26,WUHU216DAVISVP2,2013-07-07 20:01:00,
2013-07-07 16:06:00,87.6,71.8,29.93,SW,228,2.0,9.0,59,0.00,,,0.26,WUHU216DAVISVP2,2013-07-07 20:06:00,
2013-07-07 16:11:00,86.5,70.7,29.93,North,6,6.0,9.0,59,0.00,,,0.26,WUHU216DAVISVP2,2013-07-07 20:11:00,
2013-07-07 16:16:00,86.2,71.0,29.93,West,280,1.0,9.0,60,0.00,,,0.26,WUHU216DAVISVP2,2013-07-07 20:16:00,
2013-07-07 16:21:00,86.8,72.0,29.93,NW,323,0.0,8.0,61,0.00,,,0.26,WUHU216DAVISVP2,2013-07-07 20:21:00,
2013-07-07 16:26:00,86.9,71.6,29.92,WNW,288,2.0,8.0,60,0.00,,,0.26,WUHU216DAVISVP2,2013-07-07 20:26:00,
2013-07-07 16:32:00,86.9,70.6,29.93,WNW,287,2.0,7.0,58,0.00,,,0.26,WUHU216DAVISVP2,2013-07-07 20:32:00,
2013-07-07 16:37:00,86.7,70.9,29.92,WSW,252,5.0,7.0,59,0.00,,,0.26,WUHU216DAVISVP2,2013-07-07 20:37:00,
2013-07-07 16:42:00,86.9,71.1,29.92,NNW,342,3.0,7.0,59,0.00,,,0.26,WUHU216DAVISVP2,2013-07-07 20:42:00,
2013-07-07 16:47:00,87.0,71.2,29.92,NNW,331,3.0,7.0,59,0.00,,,0.26,WUHU216DAVISVP2,2013-07-07 20:47:00,
2013-07-07 16:52:00,87.0,71.7,29.92,NW,319,3.0,7.0,60,0.00,,,0.26,WUHU216DAVISVP2,2013-07-07 20:52:00,
2013-07-07 16:57:00,86.8,71.2,29.92,WNW,285,3.0,7.0,60,0.00,,,0.26,WUHU216DAVISVP2,2013-07-07 20:57:00,
2013-07-07 17:02:00,86.5,71.7,29.92,West,270,3.0,7.0,61,0.00,,,0.26,WUHU216DAVISVP2,2013-07-07 21:02:00,
2013-07-07 17:07:00,86.1,71.8,29.92,WNW,297,0.0,7.0,62,0.00,,,0.26,WUHU216DAVISVP2,2013-07-07 21:07:00,
2013-07-07 17:12:00,86.0,72.7,29.92,NNW,344,1.0,7.0,64,0.00,,,0.26,WUHU216DAVISVP2,2013-07-07 21:12:00,
2013-07-07 17:17:00,85.6,71.6,29.91,WNW,297,4.0,6.0,63,0.00,,,0.26,WUHU216DAVISVP2,2013-07-07 21:17:00,
2013-07-07 17:22:00,85.0,71.5,29.91,West,260,5.0,6.0,64,0.00,,,0.26,WUHU216DAVISVP2,2013-07-07 21:22:00,
2013-07-07 17:27:00,84.9,72.1,29.91,NNW,340,0.0,5.0,65,0.00,,,0.26,WUHU216DAVISVP2,2013-07-07 21:27:00,
2013-07-07 17:32:00,84.8,71.5,29.91,WSW,243,0.0,5.0,64,0.00,,,0.26,WUHU216DAVISVP2,2013-07-07 21:32:00,
2013-07-07 17:37:00,84.6,71.4,29.91,North,5,1.0,5.0,64,0.00,,,0.26,WUHU216DAVISVP2,2013-07-07 21:37:00,
2013-07-07 17:42:00,84.2,71.4,29.91,North,360,1.0,4.0,65,0.00,,,0.26,WUHU216DAVISVP2,2013-07-07 21:42:00,
2013-07-07 17:47:00,84.0,71.7,29.91,WNW,295,1.0,6.0,66,0.00,,,0.26,WUHU216DAVISVP2,2013-07-07 21:47:00,
2013-07-07 17:52:00,83.9,71.6,29.91,North,1,3.0,6.0,66,0.00,,,0.26,WUHU216DAVISVP2,2013-07-07 21:52:00,
2013-07-07 17:57:00,83.9,71.6,29.91,NW,324,0.0,6.0,66,0.00,,,0.26,WUHU216DAVISVP2,2013-07-07 21:57:00,
2013-07-07 18:02:00,84.1,72.2,29.91,NE,39,0.0,6.0,67,0.00,,,0.26,WUHU216DAVISVP2,2013-07-07 22:02:00,
2013-07-07 18:07:00,84.0,71.7,29.91,NE,49,2.0,5.0,66,0.00,,,0.26,WUHU216DAVISVP2,2013-07-07 22:07:00,
2013-07-07 18:12:00,83.9,72.5,29.91,NNW,342,0.0,3.0,68,0.00,,,0.26,WUHU216DAVISVP2,2013-07-07 22:12:00,
2013-07-07 18:17:00,83.8,71.9,29.91,NE,37,1.0,3.0,67,0.00,,,0.26,WUHU216DAVISVP2,2013-07-07 22:17:00,
2013-07-07 18:22:00,83.9,72.0,29.91,NNW,346,0.0,3.0,67,0.00,,,0.26,WUHU216DAVISVP2,2013-07-07 22:22:00,
2013-07-07 18:27:00,84.0,71.7,29.91,North,349,1.0,3.0,66,0.00,,,0.26,WUHU216DAVISVP2,2013-07-07 22:27:00,
2013-07-07 18:32:00,84.2,71.9,29.91,NNE,15,1.0,4.0,66,0.00,,,0.26,WUHU216DAVISVP2,2013-07-07 22:32:00,
2013-07-07 18:37:00,84.0,72.1,29.91,NNE,27,2.0,5.0,67,0.00,,,0.26,WUHU216DAVISVP2,2013-07-07 22:37:00,
2013-07-07 18:41:00,84.0,71.9,29.91,NNW,330,1.0,5.0,67,0.00,,,0.26,WUHU216DAVISVP2,2013-07-07 22:41:00,
2013-07-07 18:47:00,83.9,72.2,29.91,NW,315,0.0,5.0,68,0.00,,,0.26,WUHU216DAVISVP2,2013-07-07 22:47:00,
2013-07-07 18:52:00,83.6,72.3,29.91,NNW,346,1.0,5.0,69,0.00,,,0.26,WUHU216DAVISVP2,2013-07-07 22:52:00,
2013-07-07 18:57:00,83.3,72.7,29.91,ENE,75,0.0,3.0,70,0.00,,,0.26,WUHU216DAVISVP2,2013-07-07 22:57:00,
2013-07-07 19:02:00,83.3,72.7,29.91,NNW,335,2.0,4.0,70,0.00,,,0.26,WUHU216DAVISVP2,2013-07-07 23:02:00,
2013-07-07 19:07:00,83.0,72.4,29.91,NW,322,1.0,4.0,70,0.00,,,0.26,WUHU216DAVISVP2,2013-07-07 23:07:00,
2013-07-07 19:12:00,82.7,72.6,29.91,NNW,335,0.0,4.0,71,0.00,,,0.26,WUHU216DAVISVP2,2013-07-07 23:12:00,
2013-07-07 19:17:00,82.7,72.6,29.91,NNW,333,0.0,4.0,71,0.00,,,0.26,WUHU216DAVISVP2,2013-07-07 23:17:00,
2013-07-07 19:22:00,82.7,72.6,29.91,NNW,333,0.0,3.0,71,0.00,,,0.26,WUHU216DAVISVP2,2013-07-07 23:22:00,
2013-07-07 19:27:00,82.7,72.6,29.91,NNW,333,0.0,3.0,71,0.00,,,0.26,WUHU216DAVISVP2,2013-07-07 23:27:00,
2013-07-07 19:31:00,82.6,72.1,29.91,NNW,333,0.0,2.0,70,0.00,,,0.26,WUHU216DAVISVP2,2013-07-07 23:31:00,
2013-07-07 19:36:00,82.5,72.4,29.92,NNW,330,1.0,1.0,71,0.00,,,0.26,WUHU216DAVISVP2,2013-07-07 23:36:00,
2013-07-07 19:41:00,82.1,72.0,29.92,NNW,330,0.0,3.0,71,0.00,,,0.26,WUHU216DAVISVP2,2013-07-07 23:41:00,
2013-07-07 19:46:00,82.0,72.1,29.92,NNW,342,0.0,3.0,72,0.00,,,0.26,WUHU216DAVISVP2,2013-07-07 23:46:00,
2013-07-07 19:51:00,81.8,72.5,29.92,NNW,330,0.0,3.0,73,0.00,,,0.26,WUHU216DAVISVP2,2013-07-07 23:51:00,
2013-07-07 19:56:00,81.7,72.4,29.92,NW,314,0.0,3.0,73,0.00,,,0.26,WUHU216DAVISVP2,2013-07-07 23:56:00,
2013-07-07 20:01:00,81.5,71.8,29.92,NW,304,3.0,3.0,72,0.00,,,0.26,WUHU216DAVISVP2,2013-07-08 00:01:00,
2013-07-07 20:06:00,81.3,72.0,29.92,NW,319,0.0,3.0,73,0.00,,,0.26,WUHU216DAVISVP2,2013-07-08 00:06:00,
2013-07-07 20:11:00,81.1,72.2,29.92,NW,307,1.0,3.0,74,0.00,,,0.26,WUHU216DAVISVP2,2013-07-08 00:11:00,
2013-07-07 20:16:00,80.9,71.6,29.92,NNW,327,2.0,4.0,73,0.00,,,0.26,WUHU216DAVISVP2,2013-07-08 00:16:00,
2013-07-07 20:21:00,80.7,71.4,29.92,WSW,254,2.0,5.0,73,0.00,,,0.26,WUHU216DAVISVP2,2013-07-08 00:21:00,
2013-07-07 20:26:00,80.5,71.2,29.92,West,277,1.0,5.0,73,0.00,,,0.26,WUHU216DAVISVP2,2013-07-08 00:26:00,
2013-07-07 20:31:00,80.3,71.4,29.92,NNW,335,2.0,5.0,74,0.00,,,0.26,WUHU216DAVISVP2,2013-07-08 00:31:00,
2013-07-07 20:36:00,80.1,71.3,29.92,NNW,345,2.0,5.0,74,0.00,,,0.26,WUHU216DAVISVP2,2013-07-08 00:36:00,
2013-07-07 20:41:00,80.0,71.2,29.92,NW,319,2.0,5.0,74,0.00,,,0.26,WUHU216DAVISVP2,2013-07-08 00:41:00,
2013-07-07 20:47:00,80.0,71.5,29.91,NNE,30,0.0,6.0,75,0.00,,,0.26,WUHU216DAVISVP2,2013-07-08 00:47:00,
2013-07-07 20:52:00,79.9,70.7,29.91,North,356,1.0,6.0,73,0.00,,,0.26,WUHU216DAVISVP2,2013-07-08 00:52:00,
2013-07-07 20:56:00,79.8,71.3,29.91,NNE,26,1.0,6.0,75,0.00,,,0.26,WUHU216DAVISVP2,2013-07-08 00:56:00,
2013-07-07 21:01:00,79.6,71.9,29.92,NNE,33,0.0,5.0,77,0.00,,,0.26,WUHU216DAVISVP2,2013-07-08 01:01:00,
2013-07-07 21:06:00,79.2,71.9,29.92,NE,41,2.0,5.0,78,0.00,,,0.26,WUHU216DAVISVP2,2013-07-08 01:06:00,
2013-07-07 21:11:00,78.9,71.6,29.92,NE,37,3.0,4.0,78,0.00,,,0.26,WUHU216DAVISVP2,2013-07-08 01:11:00,
2013-07-07 21:16:00,78.6,71.7,29.92,NNW,338,1.0,5.0,79,0.00,,,0.26,WUHU216DAVISVP2,2013-07-08 01:16:00,
2013-07-07 21:21:00,78.5,71.6,29.92,WNW,301,0.0,5.0,79,0.00,,,0.26,WUHU216DAVISVP2,2013-07-08 01:21:00,
2013-07-07 21:26:00,78.5,71.6,29.92,NNE,13,0.0,4.0,79,0.00,,,0.26,WUHU216DAVISVP2,2013-07-08 01:26:00,
2013-07-07 21:31:00,78.4,71.8,29.93,NNE,13,1.0,4.0,80,0.00,,,0.26,WUHU216DAVISVP2,2013-07-08 01:31:00,
2013-07-07 21:36:00,78.2,71.6,29.93,NE,39,1.0,5.0,80,0.00,,,0.26,WUHU216DAVISVP2,2013-07-08 01:36:00,
2013-07-07 21:41:00,78.0,71.4,29.93,NNW,338,0.0,5.0,80,0.00,,,0.26,WUHU216DAVISVP2,2013-07-08 01:41:00,
2013-07-07 21:46:00,78.0,71.8,29.94,East,94,0.0,4.0,81,0.00,,,0.26,WUHU216DAVISVP2,2013-07-08 01:46:00,
2013-07-07 21:51:00,77.8,71.6,29.94,East,91,0.0,4.0,81,0.00,,,0.26,WUHU216DAVISVP2,2013-07-08 01:51:00,
2013-07-07 21:56:00,77.7,71.5,29.95,WNW,300,0.0,3.0,81,0.00,,,0.26,WUHU216DAVISVP2,2013-07-08 01:56:00,
2013-07-07 22:01:00,77.7,71.5,29.95,North,349,0.0,3.0,81,0.00,,,0.26,WUHU216DAVISVP2,2013-07-08 02:01:00,
2013-07-07 22:06:00,77.7,71.0,29.95,WNW,293,2.0,3.0,80,0.00,,,0.26,WUHU216DAVISVP2,2013-07-08 02:06:00,
2013-07-07 22:11:00,77.7,70.7,29.96,West,274,2.0,4.0,79,0.00,,,0.26,WUHU216DAVISVP2,2013-07-08 02:11:00,
2013-07-07 22:16:00,77.7,70.3,29.96,WSW,248,0.0,5.0,78,0.00,,,0.26,WUHU216DAVISVP2,2013-07-08 02:16:00,
2013-07-07 22:21:00,77.6,69.4,29.96,WNW,297,1.0,7.0,76,0.00,,,0.26,WUHU216DAVISVP2,2013-07-08 02:21:00,
2013-07-07 22:26:00,77.5,69.5,29.96,WSW,243,3.0,8.0,76,0.00,,,0.26,WUHU216DAVISVP2,2013-07-08 02:26:00,
2013-07-07 22:31:00,77.4,68.6,29.96,West,263,0.0,9.0,74,0.00,,,0.26,WUHU216DAVISVP2,2013-07-08 02:31:00,
2013-07-07 22:36:00,77.3,68.5,29.96,WNW,301,5.0,9.0,74,0.00,,,0.26,WUHU216DAVISVP2,2013-07-08 02:36:00,
2013-07-07 22:41:00,77.1,68.3,29.96,WSW,246,1.0,9.0,74,0.00,,,0.26,WUHU216DAVISVP2,2013-07-08 02:41:00,
2013-07-07 22:46:00,76.9,68.2,29.96,WNW,294,2.0,9.0,74,0.00,,,0.26,WUHU216DAVISVP2,2013-07-08 02:46:00,
2013-07-07 22:51:00,76.8,68.1,29.96,SSW,200,2.0,11.0,74,0.00,,,0.26,WUHU216DAVISVP2,2013-07-08 02:51:00,
2013-07-07 22:56:00,76.7,68.0,29.96,NW,304,1.0,11.0,74,0.00,,,0.26,WUHU216DAVISVP2,2013-07-08 02:56:00,
2013-07-07 23:01:00,76.5,68.1,29.96,WNW,290,1.0,11.0,75,0.00,,,0.26,WUHU216DAVISVP2,2013-07-08 03:01:00,
2013-07-07 23:06:00,76.3,68.0,29.95,WNW,288,0.0,11.0,75,0.00,,,0.26,WUHU216DAVISVP2,2013-07-08 03:06:00,
2013-07-07 23:11:00,76.2,67.7,29.95,West,263,0.0,7.0,75,0.00,,,0.26,WUHU216DAVISVP2,2013-07-08 03:11:00,
2013-07-07 23:16:00,76.1,68.0,29.95,West,277,2.0,7.0,76,0.00,,,0.26,WUHU216DAVISVP2,2013-07-08 03:16:00,
2013-07-07 23:21:00,76.0,68.0,29.95,SW,235,2.0,7.0,76,0.00,,,0.26,WUHU216DAVISVP2,2013-07-08 03:21:00,
2013-07-07 23:26:00,75.9,67.9,29.95,SW,217,1.0,7.0,76,0.00,,,0.26,WUHU216DAVISVP2,2013-07-08 03:26:00,
2013-07-07 23:31:00,75.7,68.1,29.96,West,280,2.0,4.0,77,0.00,,,0.26,WUHU216DAVISVP2,2013-07-08 03:31:00,
2013-07-07 23:36:00,75.6,68.0,29.96,WSW,255,1.0,4.0,77,0.00,,,0.26,WUHU216DAVISVP2,2013-07-08 03:36:00,
2013-07-07 23:41:00,75.5,68.3,29.95,WSW,246,2.0,4.0,78,0.00,,,0.26,WUHU216DAVISVP2,2013-07-08 03:41:00,
2013-07-07 23:46:00,75.4,68.2,29.95,WNW,285,2.0,5.0,78,0.00,,,0.26,WUHU216DAVISVP2,2013-07-08 03:46:00,
2013-07-07 23:51:00,75.2,68.0,29.95,WSW,249,0.0,5.0,78,0.00,,,0.26,WUHU216DAVISVP2,2013-07-08 03:51:00,
2013-07-07 23:56:00,75.1,67.8,29.95,West,278,1.0,6.0,78,0.00,,,0.26,WUHU216DAVISVP2,2013-07-08 03:56:00,